Time;durP1;ratioP1;P1;durP2;ratioP2;P2;SDS_P1;SDS_P2;PMS_P1;PMS_P2;Temp;Humidity;BMP_temperature;BMP_pressure;BME280_temperature;BME280_humidity;BME280_pressure;Samples;Min_cycle;Max_cycle;Signal;HPM_P1;HPM_P2
2023/09/22 00:00:58;;;;;;;2.10;1.20;;;;;;;;;;4951856;28;20236;-74
2023/09/22 00:03:24;;;;;;;2.67;1.20;;;;;;;;;;4950137;29;20220;-75
2023/09/22 00:05:52;;;;;;;2.37;1.10;;;;;;;;;;4949613;29;20193;-75
2023/09/22 00:08:18;;;;;;;1.00;0.93;;;;;;;;;;4948186;29;20229;-75
2023/09/22 00:10:45;;;;;;;1.50;1.30;;;;;;;;;;4950452;28;20544;-74
2023/09/22 00:13:11;;;;;;;2.33;1.27;;;;;;;;;;4949686;29;20216;-75
2023/09/22 00:15:37;;;;;;;2.17;1.10;;;;;;;;;;4950117;28;21495;-75
2023/09/22 00:18:03;;;;;;;2.17;1.10;;;;;;;;;;4949372;29;20229;-74
2023/09/22 00:20:30;;;;;;;1.00;0.90;;;;;;;;;;4963429;28;20220;-74
2023/09/22 00:22:56;;;;;;;1.70;1.20;;;;;;;;;;4949944;28;20225;-74
2023/09/22 00:25:22;;;;;;;2.40;1.20;;;;;;;;;;4946664;29;20238;-74
2023/09/22 00:27:49;;;;;;;3.00;1.10;;;;;;;;;;4945112;29;20361;-75
2023/09/22 00:30:15;;;;;;;1.93;1.20;;;;;;;;;;4950574;28;20199;-74
2023/09/22 00:32:41;;;;;;;1.90;1.03;;;;;;;;;;4944014;29;20190;-74
2023/09/22 00:35:12;;;;;;;1.53;0.90;;;;;;;;;;4948559;28;20276;-75
2023/09/22 00:37:40;;;;;;;2.27;1.07;;;;;;;;;;4946690;29;20296;-75
2023/09/22 00:40:08;;;;;;;2.20;1.13;;;;;;;;;;4948135;29;20177;-74
2023/09/22 00:42:35;;;;;;;1.20;1.10;;;;;;;;;;4947256;28;20208;-74
2023/09/22 00:45:01;;;;;;;1.80;1.07;;;;;;;;;;4929575;29;20727;-74
2023/09/22 00:47:28;;;;;;;1.27;1.07;;;;;;;;;;4948183;29;20189;-75
2023/09/22 00:49:54;;;;;;;1.30;1.13;;;;;;;;;;4947099;29;20183;-75
2023/09/22 00:52:22;;;;;;;1.03;0.93;;;;;;;;;;4948650;28;20227;-74
2023/09/22 00:54:49;;;;;;;1.23;1.10;;;;;;;;;;4948024;28;20598;-75
2023/09/22 00:57:16;;;;;;;1.87;1.10;;;;;;;;;;4948652;28;20305;-75
2023/09/22 00:59:42;;;;;;;1.27;1.10;;;;;;;;;;4945725;29;20272;-75
2023/09/22 01:02:09;;;;;;;2.70;1.10;;;;;;;;;;4949305;28;20238;-75
2023/09/22 01:04:35;;;;;;;1.17;1.03;;;;;;;;;;4949839;29;20189;-74
2023/09/22 01:07:01;;;;;;;1.60;0.90;;;;;;;;;;4949880;28;20192;-75
2023/09/22 01:09:27;;;;;;;1.50;1.00;;;;;;;;;;4949913;29;20221;-75
2023/09/22 01:11:54;;;;;;;1.07;0.97;;;;;;;;;;4969184;28;20188;-75
2023/09/22 01:14:20;;;;;;;1.53;1.10;;;;;;;;;;4954416;29;20272;-74
2023/09/22 01:16:46;;;;;;;1.10;0.90;;;;;;;;;;4952659;29;20198;-75
2023/09/22 01:19:16;;;;;;;2.20;1.00;;;;;;;;;;4950639;29;20227;-75
2023/09/22 01:21:49;;;;;;;1.10;1.00;;;;;;;;;;4936826;29;20193;-75
2023/09/22 01:24:15;;;;;;;1.83;1.10;;;;;;;;;;4952108;28;20204;-75
2023/09/22 01:26:41;;;;;;;3.10;1.03;;;;;;;;;;4953410;29;20185;-74
2023/09/22 01:29:08;;;;;;;1.23;1.10;;;;;;;;;;4951386;28;20209;-75
2023/09/22 01:31:35;;;;;;;1.00;0.90;;;;;;;;;;4953039;28;20186;-75
2023/09/22 01:34:02;;;;;;;1.00;0.90;;;;;;;;;;4952726;29;20188;-74
2023/09/22 01:36:29;;;;;;;1.20;1.03;;;;;;;;;;4950308;29;20842;-75
2023/09/22 01:38:59;;;;;;;0.93;0.93;;;;;;;;;;4951783;28;20704;-75
2023/09/22 01:41:25;;;;;;;2.57;1.00;;;;;;;;;;4953116;29;20272;-75
2023/09/22 01:43:51;;;;;;;1.20;1.00;;;;;;;;;;4967268;28;20206;-74
2023/09/22 01:46:17;;;;;;;1.13;1.00;;;;;;;;;;4951422;29;20723;-74
2023/09/22 01:48:43;;;;;;;1.50;1.10;;;;;;;;;;4934592;29;20304;-75
2023/09/22 01:51:09;;;;;;;3.70;1.03;;;;;;;;;;4951516;29;20190;-75
2023/09/22 01:53:35;;;;;;;2.53;1.10;;;;;;;;;;4949116;29;20675;-74
2023/09/22 01:56:01;;;;;;;3.07;1.00;;;;;;;;;;4953078;29;20224;-75
2023/09/22 01:58:28;;;;;;;2.70;1.20;;;;;;;;;;4951046;29;20868;-74
2023/09/22 02:00:55;;;;;;;1.83;1.23;;;;;;;;;;4950654;29;20201;-74
2023/09/22 02:03:21;;;;;;;1.80;1.10;;;;;;;;;;4951355;29;20567;-75
2023/09/22 02:05:47;;;;;;;1.67;1.03;;;;;;;;;;4951433;28;20190;-74
2023/09/22 02:08:13;;;;;;;1.57;0.90;;;;;;;;;;4951810;29;20222;-74
2023/09/22 02:10:40;;;;;;;2.63;1.20;;;;;;;;;;4951714;29;20802;-74
2023/09/22 02:13:09;;;;;;;1.47;1.07;;;;;;;;;;4952320;29;20186;-74
2023/09/22 02:15:35;;;;;;;1.30;1.10;;;;;;;;;;4949396;29;20229;-74
2023/09/22 02:18:02;;;;;;;2.60;1.10;;;;;;;;;;4952934;28;20227;-75
2023/09/22 02:20:28;;;;;;;1.47;1.00;;;;;;;;;;4951954;28;20186;-75
2023/09/22 02:22:55;;;;;;;1.30;1.07;;;;;;;;;;4953105;29;20212;-75
2023/09/22 02:25:22;;;;;;;2.77;1.10;;;;;;;;;;4952224;29;20212;-75
2023/09/22 02:27:49;;;;;;;1.30;1.00;;;;;;;;;;4952956;29;20304;-75
2023/09/22 02:30:16;;;;;;;1.50;1.10;;;;;;;;;;4951839;29;20181;-74
2023/09/22 02:32:43;;;;;;;1.07;0.97;;;;;;;;;;4953478;29;20180;-74
2023/09/22 02:35:10;;;;;;;1.77;1.20;;;;;;;;;;4951485;28;20177;-74
2023/09/22 02:37:37;;;;;;;1.20;1.10;;;;;;;;;;4967681;28;20237;-75
2023/09/22 02:40:04;;;;;;;1.13;1.00;;;;;;;;;;4952559;28;20593;-74
2023/09/22 02:42:31;;;;;;;2.10;1.10;;;;;;;;;;4952815;28;20182;-74
2023/09/22 02:44:57;;;;;;;2.70;1.30;;;;;;;;;;4952892;29;20221;-74
2023/09/22 02:47:23;;;;;;;1.70;1.30;;;;;;;;;;4952750;29;20189;-74
2023/09/22 02:49:49;;;;;;;1.97;1.27;;;;;;;;;;4950750;29;20560;-74
2023/09/22 02:52:15;;;;;;;2.67;1.20;;;;;;;;;;4952267;28;20560;-74
2023/09/22 02:54:42;;;;;;;1.50;1.23;;;;;;;;;;4952576;28;20189;-74
2023/09/22 02:57:08;;;;;;;2.40;1.23;;;;;;;;;;4949781;29;20197;-74
2023/09/22 02:59:34;;;;;;;2.33;1.20;;;;;;;;;;4947493;29;20753;-75
2023/09/22 03:02:00;;;;;;;2.77;1.20;;;;;;;;;;4935081;29;20190;-74
2023/09/22 03:04:27;;;;;;;1.60;1.10;;;;;;;;;;4952481;28;20518;-74
2023/09/22 03:06:53;;;;;;;1.67;1.13;;;;;;;;;;4951099;29;20526;-74
2023/09/22 03:09:19;;;;;;;2.40;1.30;;;;;;;;;;4966678;28;20221;-75
2023/09/22 03:11:46;;;;;;;2.00;1.20;;;;;;;;;;4951420;29;20260;-74
2023/09/22 03:14:12;;;;;;;1.53;1.20;;;;;;;;;;4951169;29;20614;-74
2023/09/22 03:16:38;;;;;;;2.40;1.10;;;;;;;;;;4948983;29;20941;-74
2023/09/22 03:19:05;;;;;;;2.60;1.20;;;;;;;;;;4949890;28;20205;-75
2023/09/22 03:21:31;;;;;;;1.83;1.27;;;;;;;;;;4950272;28;20190;-75
2023/09/22 03:23:58;;;;;;;1.63;1.13;;;;;;;;;;4950508;29;20189;-74
2023/09/22 03:26:24;;;;;;;1.57;1.10;;;;;;;;;;4964988;28;20555;-75
2023/09/22 03:28:50;;;;;;;3.10;1.57;;;;;;;;;;4950685;29;20292;-74
2023/09/22 03:31:19;;;;;;;1.47;1.03;;;;;;;;;;4948300;28;20729;-74
2023/09/22 03:33:46;;;;;;;4.20;1.40;;;;;;;;;;4951599;28;20217;-75
2023/09/22 03:36:14;;;;;;;3.03;1.23;;;;;;;;;;4949126;29;20277;-74
2023/09/22 03:38:48;;;;;;;2.17;1.30;;;;;;;;;;4945982;29;20206;-75
2023/09/22 03:41:17;;;;;;;1.90;1.20;;;;;;;;;;4948965;29;20196;-75
2023/09/22 03:43:43;;;;;;;1.37;1.10;;;;;;;;;;4947987;29;20198;-75
2023/09/22 03:46:11;;;;;;;2.00;1.30;;;;;;;;;;4948816;29;20699;-75
2023/09/22 03:48:40;;;;;;;2.67;1.10;;;;;;;;;;4948268;28;20697;-75
2023/09/22 03:51:07;;;;;;;4.00;1.20;;;;;;;;;;4950372;29;20181;-75
2023/09/22 03:53:33;;;;;;;1.57;1.17;;;;;;;;;;4950312;28;20344;-74
2023/09/22 03:56:00;;;;;;;1.50;1.23;;;;;;;;;;4950798;28;20188;-74
2023/09/22 03:58:26;;;;;;;1.37;1.27;;;;;;;;;;4949977;29;20217;-75
2023/09/22 04:01:03;;;;;;;1.83;1.30;;;;;;;;;;4950869;29;20190;-75
2023/09/22 04:03:29;;;;;;;2.03;1.30;;;;;;;;;;4942835;28;20189;-74
2023/09/22 04:05:55;;;;;;;2.77;1.10;;;;;;;;;;4950377;28;20593;-75
2023/09/22 04:08:21;;;;;;;1.47;1.13;;;;;;;;;;4951519;28;20215;-75
2023/09/22 04:10:47;;;;;;;1.57;1.27;;;;;;;;;;4942906;28;20186;-74
2023/09/22 04:13:14;;;;;;;1.60;1.13;;;;;;;;;;4947578;28;20732;-74
2023/09/22 04:15:41;;;;;;;2.20;1.40;;;;;;;;;;4950502;28;20188;-74
2023/09/22 04:18:07;;;;;;;1.63;1.03;;;;;;;;;;4960653;28;20232;-75
2023/09/22 04:20:35;;;;;;;1.40;1.20;;;;;;;;;;4965641;28;20221;-74
2023/09/22 04:23:04;;;;;;;1.90;1.40;;;;;;;;;;4951609;28;20192;-74
2023/09/22 04:25:34;;;;;;;3.47;1.43;;;;;;;;;;4951243;28;20193;-74
2023/09/22 04:28:17;;;;;;;1.47;1.30;;;;;;;;;;4949877;28;20224;-75
2023/09/22 04:30:44;;;;;;;1.90;1.30;;;;;;;;;;4945229;29;20181;-74
2023/09/22 04:33:13;;;;;;;2.97;1.40;;;;;;;;;;4949297;28;20181;-75
2023/09/22 04:35:40;;;;;;;2.63;1.50;;;;;;;;;;4947076;29;20236;-74
2023/09/22 04:38:06;;;;;;;3.90;1.40;;;;;;;;;;4949230;28;20208;-74
2023/09/22 04:40:38;;;;;;;2.73;1.60;;;;;;;;;;4948493;28;20193;-75
2023/09/22 04:43:07;;;;;;;2.73;1.50;;;;;;;;;;4943848;28;20191;-74
2023/09/22 04:45:37;;;;;;;1.90;1.50;;;;;;;;;;4949226;28;20181;-74
2023/09/22 04:48:05;;;;;;;2.53;1.50;;;;;;;;;;4950431;29;20241;-76
2023/09/22 04:50:31;;;;;;;3.80;1.80;;;;;;;;;;4944756;29;20765;-76
2023/09/22 04:52:58;;;;;;;2.83;1.50;;;;;;;;;;4950004;29;20181;-76
2023/09/22 04:55:25;;;;;;;1.70;1.60;;;;;;;;;;4950288;28;20184;-76
2023/09/22 04:57:51;;;;;;;3.33;1.70;;;;;;;;;;4942124;28;20212;-76
2023/09/22 05:00:21;;;;;;;2.77;1.40;;;;;;;;;;4949128;28;20190;-76
2023/09/22 05:02:47;;;;;;;2.77;1.50;;;;;;;;;;4948484;29;20238;-78
2023/09/22 05:05:19;;;;;;;2.30;1.50;;;;;;;;;;4946022;28;20224;-77
2023/09/22 05:07:45;;;;;;;2.03;1.53;;;;;;;;;;4951147;28;20315;-77
2023/09/22 05:10:12;;;;;;;3.43;1.60;;;;;;;;;;4949694;29;20184;-78
2023/09/22 05:12:38;;;;;;;1.80;1.63;;;;;;;;;;4944677;28;20194;-77
2023/09/22 05:15:05;;;;;;;2.67;1.57;;;;;;;;;;4940941;29;20187;-78
2023/09/22 05:17:31;;;;;;;2.23;1.47;;;;;;;;;;4949191;29;20228;-77
2023/09/22 05:19:58;;;;;;;1.70;1.50;;;;;;;;;;4949285;29;20194;-77
2023/09/22 05:22:24;;;;;;;1.83;1.40;;;;;;;;;;4949347;29;20185;-78
2023/09/22 05:24:51;;;;;;;2.73;1.40;;;;;;;;;;4950878;29;20526;-78
2023/09/22 05:27:17;;;;;;;1.77;1.63;;;;;;;;;;4946515;29;20192;-75
2023/09/22 05:29:43;;;;;;;2.60;1.50;;;;;;;;;;4949666;29;20870;-79
2023/09/22 05:32:09;;;;;;;2.57;1.40;;;;;;;;;;4927235;29;20255;-79
2023/09/22 05:34:39;;;;;;;5.20;1.60;;;;;;;;;;4947686;28;20185;-80
2023/09/22 05:37:06;;;;;;;1.77;1.37;;;;;;;;;;4942290;28;20610;-80
2023/09/22 05:39:33;;;;;;;1.90;1.50;;;;;;;;;;4949915;29;20707;-79
2023/09/22 05:42:00;;;;;;;2.17;1.43;;;;;;;;;;4945579;29;20205;-80
2023/09/22 05:44:28;;;;;;;1.40;1.30;;;;;;;;;;4946295;28;20189;-80
2023/09/22 05:46:55;;;;;;;2.50;1.30;;;;;;;;;;4930455;29;20269;-80
2023/09/22 05:49:21;;;;;;;2.10;1.37;;;;;;;;;;4947936;29;20232;-80
2023/09/22 05:51:49;;;;;;;1.83;1.50;;;;;;;;;;4949313;29;20181;-79
2023/09/22 05:54:15;;;;;;;1.63;1.30;;;;;;;;;;4948862;28;20181;-80
2023/09/22 05:56:41;;;;;;;1.40;1.30;;;;;;;;;;4952028;29;20181;-79
2023/09/22 05:59:07;;;;;;;2.17;1.30;;;;;;;;;;4936893;29;20207;-80
2023/09/22 06:01:37;;;;;;;3.30;1.30;;;;;;;;;;4954258;28;20604;-79
2023/09/22 06:04:09;;;;;;;1.83;1.33;;;;;;;;;;4966269;28;20777;-80
2023/09/22 06:06:35;;;;;;;2.37;1.30;;;;;;;;;;4950036;28;20193;-80
2023/09/22 06:09:01;;;;;;;1.47;1.10;;;;;;;;;;4948162;28;20223;-80
2023/09/22 06:11:27;;;;;;;1.60;1.30;;;;;;;;;;4952004;28;20188;-80
2023/09/22 06:13:54;;;;;;;2.80;1.40;;;;;;;;;;4954111;29;20181;-80
2023/09/22 06:16:20;;;;;;;2.23;1.40;;;;;;;;;;4938481;28;21170;-79
2023/09/22 06:18:46;;;;;;;3.47;1.53;;;;;;;;;;4955789;29;20209;-78
2023/09/22 06:21:12;;;;;;;3.13;1.37;;;;;;;;;;4952680;28;20208;-78
2023/09/22 06:23:39;;;;;;;2.17;1.40;;;;;;;;;;4953283;29;20208;-78
2023/09/22 06:26:05;;;;;;;2.60;1.30;;;;;;;;;;4953461;28;20230;-78
2023/09/22 06:28:32;;;;;;;2.37;1.37;;;;;;;;;;4953656;28;20205;-78
2023/09/22 06:31:03;;;;;;;2.63;1.30;;;;;;;;;;4950542;28;20431;-79
2023/09/22 06:33:32;;;;;;;1.90;1.60;;;;;;;;;;4951667;28;20727;-78
2023/09/22 06:35:59;;;;;;;1.47;1.37;;;;;;;;;;4965844;28;21686;-77
2023/09/22 06:38:26;;;;;;;2.90;1.57;;;;;;;;;;4934982;29;20205;-78
2023/09/22 06:40:55;;;;;;;3.07;1.20;;;;;;;;;;4949492;28;20716;-76
2023/09/22 06:43:24;;;;;;;2.60;1.17;;;;;;;;;;4921405;29;20287;-76
2023/09/22 06:45:56;;;;;;;3.13;1.20;;;;;;;;;;4952229;28;20646;-77
2023/09/22 06:48:26;;;;;;;1.57;1.30;;;;;;;;;;4957318;28;20212;-76
2023/09/22 06:50:57;;;;;;;1.60;1.37;;;;;;;;;;4949680;28;20268;-77
2023/09/22 06:53:24;;;;;;;2.40;1.37;;;;;;;;;;4949433;28;20177;-77
2023/09/22 06:55:50;;;;;;;1.30;1.20;;;;;;;;;;4952092;28;20548;-77
2023/09/22 06:58:16;;;;;;;1.53;1.30;;;;;;;;;;4952399;29;20640;-77
2023/09/22 07:00:42;;;;;;;2.17;1.20;;;;;;;;;;4952663;28;20559;-77
2023/09/22 07:03:09;;;;;;;1.90;1.13;;;;;;;;;;4952935;28;20185;-77
2023/09/22 07:05:35;;;;;;;1.63;1.23;;;;;;;;;;4952098;28;20658;-77
2023/09/22 07:08:03;;;;;;;4.83;1.40;;;;;;;;;;4951889;28;20219;-77
2023/09/22 07:10:30;;;;;;;1.57;1.20;;;;;;;;;;4952599;29;20185;-77
2023/09/22 07:12:58;;;;;;;2.23;1.43;;;;;;;;;;4947807;28;20197;-77
2023/09/22 07:15:24;;;;;;;1.60;1.10;;;;;;;;;;4948843;29;20232;-77
2023/09/22 07:17:51;;;;;;;2.23;1.20;;;;;;;;;;4947926;28;20209;-77
2023/09/22 07:20:17;;;;;;;3.40;1.40;;;;;;;;;;4948826;28;20181;-77
2023/09/22 07:22:44;;;;;;;2.07;1.30;;;;;;;;;;4952005;29;20185;-77
2023/09/22 07:25:11;;;;;;;1.50;1.40;;;;;;;;;;4952162;28;20192;-79
2023/09/22 07:27:39;;;;;;;2.37;1.40;;;;;;;;;;4952099;28;20307;-77
2023/09/22 07:30:09;;;;;;;1.50;1.40;;;;;;;;;;4948516;29;20263;-75
2023/09/22 07:32:37;;;;;;;3.13;1.33;;;;;;;;;;4942410;28;20193;-76
2023/09/22 07:35:04;;;;;;;1.50;1.20;;;;;;;;;;4947215;29;20197;-75
2023/09/22 07:37:30;;;;;;;3.13;1.30;;;;;;;;;;4947536;28;20178;-75
2023/09/22 07:39:57;;;;;;;1.50;1.30;;;;;;;;;;4949606;29;20192;-76
2023/09/22 07:42:23;;;;;;;2.73;1.20;;;;;;;;;;4948247;28;20677;-74
2023/09/22 07:44:49;;;;;;;1.60;1.20;;;;;;;;;;4950822;28;20569;-74
2023/09/22 07:47:15;;;;;;;2.17;1.30;;;;;;;;;;4950803;29;20185;-75
2023/09/22 07:49:42;;;;;;;3.57;1.37;;;;;;;;;;4949447;28;20213;-74
2023/09/22 07:52:11;;;;;;;1.87;1.40;;;;;;;;;;4945479;29;20185;-74
2023/09/22 07:54:38;;;;;;;2.13;1.37;;;;;;;;;;4951235;29;20585;-74
2023/09/22 07:57:04;;;;;;;2.53;1.30;;;;;;;;;;4950825;28;20185;-74
2023/09/22 07:59:31;;;;;;;1.97;1.20;;;;;;;;;;4950571;29;20202;-74
2023/09/22 08:02:02;;;;;;;2.10;1.10;;;;;;;;;;4950698;28;20185;-74
2023/09/22 08:04:28;;;;;;;2.17;1.30;;;;;;;;;;4948947;29;20696;-74
2023/09/22 08:06:54;;;;;;;2.87;1.37;;;;;;;;;;4949363;28;20669;-74
2023/09/22 08:09:21;;;;;;;2.97;1.33;;;;;;;;;;4941440;29;20209;-74
2023/09/22 08:11:47;;;;;;;2.30;1.43;;;;;;;;;;4947317;29;20182;-74
2023/09/22 08:14:14;;;;;;;1.70;1.23;;;;;;;;;;4950008;28;20256;-74
2023/09/22 08:16:41;;;;;;;3.80;1.27;;;;;;;;;;4950471;28;20212;-74
2023/09/22 08:19:10;;;;;;;4.27;1.27;;;;;;;;;;4948269;28;20216;-74
2023/09/22 08:21:38;;;;;;;1.80;1.20;;;;;;;;;;4951070;29;20185;-74
2023/09/22 08:24:04;;;;;;;2.23;1.20;;;;;;;;;;4950930;28;20221;-74
2023/09/22 08:26:31;;;;;;;1.40;1.23;;;;;;;;;;4951200;28;20236;-75
2023/09/22 08:28:57;;;;;;;2.50;1.20;;;;;;;;;;4945677;28;20616;-74
2023/09/22 08:31:26;;;;;;;2.53;1.40;;;;;;;;;;4951035;28;20208;-74
2023/09/22 08:33:53;;;;;;;2.93;1.07;;;;;;;;;;4949906;28;20611;-74
2023/09/22 08:36:19;;;;;;;3.13;1.20;;;;;;;;;;4949043;28;20748;-74
2023/09/22 08:38:51;;;;;;;3.37;1.37;;;;;;;;;;4950267;28;20204;-75
2023/09/22 08:41:17;;;;;;;3.27;1.30;;;;;;;;;;4945834;28;20544;-74
2023/09/22 08:43:45;;;;;;;2.00;1.20;;;;;;;;;;4949551;29;20728;-74
2023/09/22 08:46:12;;;;;;;3.07;1.37;;;;;;;;;;4948794;28;20247;-74
2023/09/22 08:48:38;;;;;;;3.03;1.20;;;;;;;;;;4949451;28;20212;-77
2023/09/22 08:51:05;;;;;;;4.07;1.30;;;;;;;;;;4949871;28;20181;-77
2023/09/22 08:53:32;;;;;;;2.00;1.27;;;;;;;;;;4950887;29;20181;-77
2023/09/22 08:55:58;;;;;;;1.50;1.00;;;;;;;;;;4949923;28;20241;-76
2023/09/22 08:58:24;;;;;;;2.90;1.17;;;;;;;;;;4945707;28;20616;-77
2023/09/22 09:00:51;;;;;;;1.60;1.30;;;;;;;;;;4931180;29;20190;-77
2023/09/22 09:03:20;;;;;;;1.30;1.10;;;;;;;;;;4948074;28;20930;-77
2023/09/22 09:05:47;;;;;;;1.90;1.37;;;;;;;;;;4950093;29;20185;-78
2023/09/22 09:08:23;;;;;;;1.40;1.20;;;;;;;;;;4948675;29;20773;-76
2023/09/22 09:10:49;;;;;;;5.33;1.40;;;;;;;;;;4950324;28;20181;-76
2023/09/22 09:13:20;;;;;;;1.50;1.20;;;;;;;;;;4949950;28;20219;-77
2023/09/22 09:15:50;;;;;;;2.37;1.20;;;;;;;;;;4950949;29;20192;-76
2023/09/22 09:18:20;;;;;;;1.63;1.17;;;;;;;;;;4948034;29;20224;-77
2023/09/22 09:20:47;;;;;;;2.87;1.50;;;;;;;;;;4950632;29;20242;-76
2023/09/22 09:23:15;;;;;;;2.10;1.30;;;;;;;;;;4948535;29;20196;-76
2023/09/22 09:25:42;;;;;;;2.00;1.30;;;;;;;;;;4950812;29;20224;-76
2023/09/22 09:28:09;;;;;;;1.43;1.13;;;;;;;;;;4943610;28;20296;-77
2023/09/22 09:30:35;;;;;;;2.23;1.27;;;;;;;;;;4951563;28;20186;-77
2023/09/22 09:33:10;;;;;;;2.20;1.20;;;;;;;;;;4952175;28;20216;-76
2023/09/22 09:35:38;;;;;;;2.93;1.33;;;;;;;;;;4948172;29;20788;-77
2023/09/22 09:38:05;;;;;;;1.97;1.30;;;;;;;;;;4951072;29;20216;-76
2023/09/22 09:40:32;;;;;;;2.00;1.33;;;;;;;;;;4950316;28;20189;-77
2023/09/22 09:43:00;;;;;;;3.30;1.37;;;;;;;;;;4952833;28;20192;-76
2023/09/22 09:45:29;;;;;;;3.70;1.33;;;;;;;;;;4953111;29;20193;-76
2023/09/22 09:47:59;;;;;;;2.87;1.20;;;;;;;;;;4953984;29;20295;-75
2023/09/22 09:50:26;;;;;;;3.33;1.43;;;;;;;;;;4953808;29;20185;-76
2023/09/22 09:52:55;;;;;;;2.40;1.30;;;;;;;;;;4954450;29;20193;-76
2023/09/22 09:55:24;;;;;;;1.70;1.30;;;;;;;;;;4954265;28;20182;-76
2023/09/22 09:57:56;;;;;;;2.33;1.50;;;;;;;;;;4954016;28;20216;-76
2023/09/22 10:00:23;;;;;;;2.30;1.30;;;;;;;;;;4953233;29;20177;-76
2023/09/22 10:02:49;;;;;;;2.93;1.40;;;;;;;;;;4954391;29;20541;-75
2023/09/22 10:05:20;;;;;;;2.40;1.40;;;;;;;;;;4954045;29;20661;-76
2023/09/22 10:07:47;;;;;;;1.20;1.10;;;;;;;;;;4953739;28;20295;-76
2023/09/22 10:10:15;;;;;;;2.90;1.40;;;;;;;;;;4953760;29;20207;-77
2023/09/22 10:12:42;;;;;;;4.03;1.20;;;;;;;;;;4954221;29;20228;-76
2023/09/22 10:15:09;;;;;;;1.33;1.10;;;;;;;;;;4953893;28;20736;-76
2023/09/22 10:17:35;;;;;;;3.10;1.63;;;;;;;;;;4953831;28;20582;-76
2023/09/22 10:20:06;;;;;;;2.70;1.10;;;;;;;;;;4953637;28;20185;-74
2023/09/22 10:22:33;;;;;;;4.03;1.30;;;;;;;;;;4947495;29;20189;-74
2023/09/22 10:25:15;;;;;;;1.67;1.10;;;;;;;;;;4953862;28;20191;-73
2023/09/22 10:27:54;;;;;;;1.93;1.07;;;;;;;;;;4948149;29;20228;-74
2023/09/22 10:30:21;;;;;;;2.20;1.10;;;;;;;;;;4953383;28;20185;-74
2023/09/22 10:32:47;;;;;;;2.10;1.00;;;;;;;;;;4952589;29;20205;-73
2023/09/22 10:35:15;;;;;;;2.50;1.30;;;;;;;;;;4953392;29;20220;-74
2023/09/22 10:38:01;;;;;;;3.03;1.10;;;;;;;;;;4953370;28;20228;-74
2023/09/22 10:40:27;;;;;;;2.77;1.17;;;;;;;;;;4960574;28;20185;-74
2023/09/22 10:42:54;;;;;;;3.93;1.20;;;;;;;;;;4953689;29;20185;-74
2023/09/22 10:45:25;;;;;;;1.63;1.20;;;;;;;;;;4953530;28;20185;-74
2023/09/22 10:47:52;;;;;;;2.27;1.00;;;;;;;;;;4953279;28;20217;-73
2023/09/22 10:50:26;;;;;;;1.80;1.07;;;;;;;;;;4952173;29;20244;-73
2023/09/22 10:52:54;;;;;;;2.10;1.00;;;;;;;;;;4953376;28;20188;-75
2023/09/22 10:55:27;;;;;;;1.30;0.90;;;;;;;;;;4953226;28;20555;-73
2023/09/22 10:57:54;;;;;;;4.77;1.20;;;;;;;;;;4952723;29;20209;-73
2023/09/22 11:00:20;;;;;;;2.57;1.20;;;;;;;;;;4952863;28;20383;-74
2023/09/22 11:02:47;;;;;;;1.83;1.10;;;;;;;;;;4953226;28;20193;-74
2023/09/22 11:05:13;;;;;;;1.77;1.10;;;;;;;;;;4952858;28;20204;-74
2023/09/22 11:07:42;;;;;;;2.30;1.00;;;;;;;;;;4952699;28;20273;-74
2023/09/22 11:10:08;;;;;;;3.10;1.20;;;;;;;;;;4952581;28;20224;-74
2023/09/22 11:12:34;;;;;;;2.30;1.00;;;;;;;;;;4952930;29;20284;-76
2023/09/22 11:15:02;;;;;;;3.90;1.00;;;;;;;;;;4952755;28;20185;-76
2023/09/22 11:17:47;;;;;;;1.60;1.00;;;;;;;;;;4952724;28;20212;-77
2023/09/22 11:20:27;;;;;;;1.73;0.90;;;;;;;;;;4952709;29;20231;-74
2023/09/22 11:22:53;;;;;;;1.80;0.90;;;;;;;;;;4952876;28;20197;-74
2023/09/22 11:25:24;;;;;;;3.00;1.00;;;;;;;;;;4952688;28;20232;-74
2023/09/22 11:27:51;;;;;;;2.40;1.03;;;;;;;;;;4952507;28;20581;-75
2023/09/22 11:30:27;;;;;;;1.67;0.90;;;;;;;;;;4952233;28;20188;-74
2023/09/22 11:32:54;;;;;;;1.70;1.00;;;;;;;;;;4952565;28;20220;-75
2023/09/22 11:35:30;;;;;;;3.57;0.90;;;;;;;;;;4952229;28;20228;-74
2023/09/22 11:37:56;;;;;;;2.17;1.03;;;;;;;;;;4952062;28;20677;-74
2023/09/22 11:40:25;;;;;;;1.50;1.10;;;;;;;;;;4952300;28;20217;-74
2023/09/22 11:42:51;;;;;;;1.83;0.83;;;;;;;;;;4952348;28;20237;-74
2023/09/22 11:45:21;;;;;;;1.10;0.93;;;;;;;;;;4952231;28;20260;-74
2023/09/22 11:47:49;;;;;;;2.10;1.00;;;;;;;;;;4951843;29;20201;-74
2023/09/22 11:50:25;;;;;;;1.67;1.03;;;;;;;;;;4951973;28;20200;-74
2023/09/22 11:52:52;;;;;;;3.67;0.90;;;;;;;;;;4949738;28;20182;-74
2023/09/22 11:55:19;;;;;;;2.17;1.00;;;;;;;;;;4953082;28;20201;-74
2023/09/22 11:57:45;;;;;;;1.23;0.90;;;;;;;;;;4952525;29;20232;-75
2023/09/22 12:00:14;;;;;;;1.93;1.00;;;;;;;;;;4952153;28;20189;-75
2023/09/22 12:02:40;;;;;;;1.80;0.97;;;;;;;;;;4952908;29;20184;-74
2023/09/22 12:05:07;;;;;;;1.50;0.90;;;;;;;;;;4951739;29;20190;-74
2023/09/22 12:07:33;;;;;;;4.03;1.00;;;;;;;;;;4951549;28;20209;-74
2023/09/22 12:10:00;;;;;;;1.93;1.03;;;;;;;;;;4951322;29;20212;-74
2023/09/22 12:12:26;;;;;;;1.20;1.00;;;;;;;;;;4952641;29;20196;-76
2023/09/22 12:14:52;;;;;;;1.30;0.90;;;;;;;;;;4952929;28;20196;-74
2023/09/22 12:17:18;;;;;;;1.87;0.97;;;;;;;;;;4952070;28;20628;-75
2023/09/22 12:19:44;;;;;;;0.87;0.80;;;;;;;;;;4951643;29;20193;-76
2023/09/22 12:22:10;;;;;;;3.33;0.90;;;;;;;;;;4952645;29;20260;-76
2023/09/22 12:24:37;;;;;;;2.07;0.90;;;;;;;;;;4952608;29;20619;-74
2023/09/22 12:27:03;;;;;;;1.97;0.90;;;;;;;;;;4967124;28;20288;-75
2023/09/22 12:29:31;;;;;;;1.53;1.00;;;;;;;;;;4951643;28;20245;-75
2023/09/22 12:31:59;;;;;;;2.20;0.90;;;;;;;;;;4956565;28;20252;-76
2023/09/22 12:34:25;;;;;;;4.20;0.90;;;;;;;;;;4951583;28;20220;-76
2023/09/22 12:36:52;;;;;;;1.43;0.83;;;;;;;;;;4951281;29;20189;-76
2023/09/22 12:39:18;;;;;;;1.93;1.00;;;;;;;;;;4951448;28;20264;-76
2023/09/22 12:41:44;;;;;;;2.77;1.00;;;;;;;;;;4952324;28;20184;-77
2023/09/22 12:44:10;;;;;;;1.47;1.00;;;;;;;;;;4952131;28;20202;-75
2023/09/22 12:46:36;;;;;;;2.10;1.10;;;;;;;;;;4968010;28;20252;-79
2023/09/22 12:49:02;;;;;;;1.30;0.90;;;;;;;;;;4940171;29;20228;-79
2023/09/22 12:51:28;;;;;;;2.27;1.10;;;;;;;;;;4958087;28;20192;-77
2023/09/22 12:53:55;;;;;;;1.40;1.03;;;;;;;;;;4946784;29;20185;-79
2023/09/22 12:56:21;;;;;;;1.63;1.10;;;;;;;;;;4953407;28;20200;-78
2023/09/22 12:58:47;;;;;;;1.67;1.00;;;;;;;;;;4953508;28;20209;-79
2023/09/22 13:01:14;;;;;;;2.10;0.93;;;;;;;;;;4952822;29;20189;-79
2023/09/22 13:03:40;;;;;;;2.70;1.00;;;;;;;;;;4955511;28;20218;-79
2023/09/22 13:06:07;;;;;;;1.20;0.90;;;;;;;;;;4956644;28;20189;-78
2023/09/22 13:08:33;;;;;;;1.50;1.00;;;;;;;;;;4955884;28;20213;-79
2023/09/22 13:11:00;;;;;;;2.33;1.10;;;;;;;;;;4953334;29;20801;-78
2023/09/22 13:13:26;;;;;;;2.73;1.20;;;;;;;;;;4956185;29;20234;-75
2023/09/22 13:15:52;;;;;;;1.83;1.00;;;;;;;;;;4955452;28;20673;-76
2023/09/22 13:18:18;;;;;;;2.27;1.33;;;;;;;;;;4954109;29;20220;-77
2023/09/22 13:20:45;;;;;;;4.10;1.30;;;;;;;;;;4955743;29;20196;-76
2023/09/22 13:23:12;;;;;;;3.20;1.00;;;;;;;;;;4955816;29;20223;-77
2023/09/22 13:25:38;;;;;;;1.97;1.00;;;;;;;;;;4955912;29;20280;-77
2023/09/22 13:28:08;;;;;;;1.47;1.00;;;;;;;;;;4953781;29;20212;-75
2023/09/22 13:30:35;;;;;;;2.17;1.20;;;;;;;;;;4955546;29;20267;-77
2023/09/22 13:33:01;;;;;;;1.43;0.83;;;;;;;;;;4956579;28;20182;-81
2023/09/22 13:35:28;;;;;;;1.80;1.10;;;;;;;;;;4957878;29;20190;-80
2023/09/22 13:37:54;;;;;;;1.70;1.20;;;;;;;;;;4959032;29;20211;-80
2023/09/22 13:40:21;;;;;;;1.53;0.90;;;;;;;;;;4957875;28;20218;-80
2023/09/22 13:42:47;;;;;;;1.63;0.90;;;;;;;;;;4958820;28;20201;-80
2023/09/22 13:45:13;;;;;;;2.57;1.33;;;;;;;;;;4958480;29;20222;-80
2023/09/22 13:47:39;;;;;;;2.60;1.10;;;;;;;;;;4958155;28;20288;-80
2023/09/22 13:50:06;;;;;;;2.10;1.13;;;;;;;;;;4957402;28;20245;-80
2023/09/22 13:52:32;;;;;;;2.50;1.00;;;;;;;;;;4957975;28;20186;-80
2023/09/22 13:54:58;;;;;;;3.57;1.10;;;;;;;;;;4937477;29;20206;-80
2023/09/22 13:57:28;;;;;;;2.43;1.13;;;;;;;;;;4957968;29;20188;-80
2023/09/22 13:59:55;;;;;;;2.40;1.00;;;;;;;;;;4955656;29;20208;-80
2023/09/22 14:02:21;;;;;;;1.20;1.00;;;;;;;;;;4956604;28;20185;-77
2023/09/22 14:04:47;;;;;;;2.00;1.00;;;;;;;;;;4955983;29;20556;-80
2023/09/22 14:07:13;;;;;;;2.13;1.33;;;;;;;;;;4955255;29;20215;-80
2023/09/22 14:09:39;;;;;;;3.97;1.00;;;;;;;;;;4956043;29;20587;-78
2023/09/22 14:12:06;;;;;;;1.70;0.97;;;;;;;;;;4956947;28;20183;-80
2023/09/22 14:14:32;;;;;;;1.20;0.90;;;;;;;;;;4955244;28;20197;-81
2023/09/22 14:16:59;;;;;;;1.93;1.00;;;;;;;;;;4954242;29;20215;-77
2023/09/22 14:19:25;;;;;;;2.00;1.10;;;;;;;;;;4954757;28;21376;-79
2023/09/22 14:21:51;;;;;;;1.40;1.00;;;;;;;;;;4954977;29;20203;-79
2023/09/22 14:24:18;;;;;;;1.33;1.10;;;;;;;;;;4955514;29;20608;-81
2023/09/22 14:26:45;;;;;;;2.03;1.23;;;;;;;;;;4955147;29;20197;-81
2023/09/22 14:29:11;;;;;;;1.60;1.17;;;;;;;;;;4954537;28;20266;-81
2023/09/22 14:31:37;;;;;;;3.93;1.40;;;;;;;;;;4955206;29;20189;-81
2023/09/22 14:34:04;;;;;;;1.50;0.90;;;;;;;;;;4955417;29;20184;-81
2023/09/22 14:36:30;;;;;;;1.87;1.20;;;;;;;;;;4955529;28;20182;-81
2023/09/22 14:38:57;;;;;;;1.80;1.10;;;;;;;;;;4955536;29;20214;-81
2023/09/22 14:41:23;;;;;;;4.47;1.13;;;;;;;;;;4956453;28;20192;-82
2023/09/22 14:43:49;;;;;;;3.10;1.10;;;;;;;;;;4955768;28;20189;-81